sensor_id;sensor_type;location;lat;lon;timestamp;temperature;humidity
10722;DHT22;5412;59.450;18.124;2023-04-06T00:01:43;1.90;99.90
10722;DHT22;5412;59.450;18.124;2023-04-06T00:04:08;1.90;99.90
10722;DHT22;5412;59.450;18.124;2023-04-06T00:06:34;1.80;99.90
10722;DHT22;5412;59.450;18.124;2023-04-06T00:09:00;1.80;99.90
10722;DHT22;5412;59.450;18.124;2023-04-06T00:11:26;1.80;99.90
10722;DHT22;5412;59.450;18.124;2023-04-06T00:13:52;1.80;99.90
10722;DHT22;5412;59.450;18.124;2023-04-06T00:16:18;1.70;99.90
10722;DHT22;5412;59.450;18.124;2023-04-06T00:18:44;1.70;99.90
10722;DHT22;5412;59.450;18.124;2023-04-06T00:21:13;1.70;99.90
10722;DHT22;5412;59.450;18.124;2023-04-06T00:23:40;1.70;99.90
10722;DHT22;5412;59.450;18.124;2023-04-06T00:26:08;1.70;99.90
10722;DHT22;5412;59.450;18.124;2023-04-06T00:28:34;1.70;99.90
10722;DHT22;5412;59.450;18.124;2023-04-06T00:30:59;1.80;99.90
10722;DHT22;5412;59.450;18.124;2023-04-06T00:33:25;1.80;99.90
10722;DHT22;5412;59.450;18.124;2023-04-06T00:35:51;1.80;99.90
10722;DHT22;5412;59.450;18.124;2023-04-06T00:38:17;1.80;99.90
10722;DHT22;5412;59.450;18.124;2023-04-06T00:40:43;1.90;99.90
10722;DHT22;5412;59.450;18.124;2023-04-06T00:43:13;1.90;99.90
10722;DHT22;5412;59.450;18.124;2023-04-06T00:45:42;1.90;99.90
10722;DHT22;5412;59.450;18.124;2023-04-06T00:48:08;2.00;99.90
10722;DHT22;5412;59.450;18.124;2023-04-06T00:50:34;2.00;99.90
10722;DHT22;5412;59.450;18.124;2023-04-06T00:53:00;2.10;99.90
10722;DHT22;5412;59.450;18.124;2023-04-06T00:55:27;2.10;99.90
10722;DHT22;5412;59.450;18.124;2023-04-06T00:57:53;2.00;99.90
10722;DHT22;5412;59.450;18.124;2023-04-06T01:00:20;1.90;99.90
10722;DHT22;5412;59.450;18.124;2023-04-06T01:02:46;2.00;99.90
10722;DHT22;5412;59.450;18.124;2023-04-06T01:05:13;1.90;99.90
10722;DHT22;5412;59.450;18.124;2023-04-06T01:07:39;2.00;99.90
10722;DHT22;5412;59.450;18.124;2023-04-06T01:10:05;2.00;99.90
10722;DHT22;5412;59.450;18.124;2023-04-06T01:12:31;2.00;99.90
10722;DHT22;5412;59.450;18.124;2023-04-06T01:14:57;2.10;99.90
10722;DHT22;5412;59.450;18.124;2023-04-06T01:17:22;2.20;99.90
10722;DHT22;5412;59.450;18.124;2023-04-06T01:19:48;2.20;99.90
10722;DHT22;5412;59.450;18.124;2023-04-06T01:22:18;2.20;99.90
10722;DHT22;5412;59.450;18.124;2023-04-06T01:24:44;2.20;99.90
10722;DHT22;5412;59.450;18.124;2023-04-06T01:27:10;2.10;99.90
10722;DHT22;5412;59.450;18.124;2023-04-06T01:29:36;2.10;99.90
10722;DHT22;5412;59.450;18.124;2023-04-06T01:32:02;2.10;99.90
10722;DHT22;5412;59.450;18.124;2023-04-06T01:34:28;2.10;99.90
10722;DHT22;5412;59.450;18.124;2023-04-06T01:36:54;2.20;99.90
10722;DHT22;5412;59.450;18.124;2023-04-06T01:39:20;2.10;99.90
10722;DHT22;5412;59.450;18.124;2023-04-06T01:41:46;2.20;99.90
10722;DHT22;5412;59.450;18.124;2023-04-06T01:44:16;2.20;99.90
10722;DHT22;5412;59.450;18.124;2023-04-06T01:46:42;2.30;99.90
10722;DHT22;5412;59.450;18.124;2023-04-06T01:49:08;2.30;99.90
10722;DHT22;5412;59.450;18.124;2023-04-06T01:51:34;2.20;99.90
10722;DHT22;5412;59.450;18.124;2023-04-06T01:54:00;2.10;99.90
10722;DHT22;5412;59.450;18.124;2023-04-06T01:56:25;2.10;99.90
10722;DHT22;5412;59.450;18.124;2023-04-06T01:58:51;2.10;99.90
10722;DHT22;5412;59.450;18.124;2023-04-06T02:01:17;2.20;99.90
10722;DHT22;5412;59.450;18.124;2023-04-06T02:03:43;2.20;99.90
10722;DHT22;5412;59.450;18.124;2023-04-06T02:06:09;2.30;99.90
10722;DHT22;5412;59.450;18.124;2023-04-06T02:08:34;2.30;99.90
10722;DHT22;5412;59.450;18.124;2023-04-06T02:11:00;2.30;99.90
10722;DHT22;5412;59.450;18.124;2023-04-06T02:13:26;2.30;99.90
10722;DHT22;5412;59.450;18.124;2023-04-06T02:15:52;2.30;99.90
10722;DHT22;5412;59.450;18.124;2023-04-06T02:18:18;2.20;99.90
10722;DHT22;5412;59.450;18.124;2023-04-06T02:20:44;2.30;99.90
10722;DHT22;5412;59.450;18.124;2023-04-06T02:23:10;2.30;99.90
10722;DHT22;5412;59.450;18.124;2023-04-06T02:25:36;2.30;99.90
10722;DHT22;5412;59.450;18.124;2023-04-06T02:28:02;2.20;99.90
10722;DHT22;5412;59.450;18.124;2023-04-06T02:30:28;2.30;99.90
10722;DHT22;5412;59.450;18.124;2023-04-06T02:32:55;2.30;99.90
10722;DHT22;5412;59.450;18.124;2023-04-06T02:35:21;2.40;99.90
10722;DHT22;5412;59.450;18.124;2023-04-06T02:37:46;2.50;99.90
10722;DHT22;5412;59.450;18.124;2023-04-06T02:40:13;2.50;99.90
10722;DHT22;5412;59.450;18.124;2023-04-06T02:42:39;2.50;99.90
10722;DHT22;5412;59.450;18.124;2023-04-06T02:45:06;2.60;99.90
10722;DHT22;5412;59.450;18.124;2023-04-06T02:47:32;2.60;99.90
10722;DHT22;5412;59.450;18.124;2023-04-06T02:49:58;2.70;99.90
10722;DHT22;5412;59.450;18.124;2023-04-06T02:52:24;2.60;99.90
10722;DHT22;5412;59.450;18.124;2023-04-06T02:54:49;2.70;99.90
10722;DHT22;5412;59.450;18.124;2023-04-06T02:57:16;2.60;99.90
10722;DHT22;5412;59.450;18.124;2023-04-06T02:59:42;2.60;99.90
10722;DHT22;5412;59.450;18.124;2023-04-06T03:02:08;2.60;99.90
10722;DHT22;5412;59.450;18.124;2023-04-06T03:04:34;2.60;99.90
10722;DHT22;5412;59.450;18.124;2023-04-06T03:07:00;2.60;99.90
10722;DHT22;5412;59.450;18.124;2023-04-06T03:09:26;2.60;99.90
10722;DHT22;5412;59.450;18.124;2023-04-06T03:11:52;2.60;99.90
10722;DHT22;5412;59.450;18.124;2023-04-06T03:14:18;2.70;99.90
10722;DHT22;5412;59.450;18.124;2023-04-06T03:16:47;2.80;99.90
10722;DHT22;5412;59.450;18.124;2023-04-06T03:19:14;2.80;99.90
10722;DHT22;5412;59.450;18.124;2023-04-06T03:21:39;2.80;99.90
10722;DHT22;5412;59.450;18.124;2023-04-06T03:24:05;2.80;99.90
10722;DHT22;5412;59.450;18.124;2023-04-06T03:26:31;2.90;99.90
10722;DHT22;5412;59.450;18.124;2023-04-06T03:28:57;2.90;99.90
10722;DHT22;5412;59.450;18.124;2023-04-06T03:31:23;2.80;99.90
10722;DHT22;5412;59.450;18.124;2023-04-06T03:33:48;2.70;99.90
10722;DHT22;5412;59.450;18.124;2023-04-06T03:36:14;2.50;99.90
10722;DHT22;5412;59.450;18.124;2023-04-06T03:38:40;2.60;99.90
10722;DHT22;5412;59.450;18.124;2023-04-06T03:41:06;2.60;99.90
10722;DHT22;5412;59.450;18.124;2023-04-06T03:43:32;2.60;99.90
10722;DHT22;5412;59.450;18.124;2023-04-06T03:45:57;2.50;99.90
10722;DHT22;5412;59.450;18.124;2023-04-06T03:48:23;2.30;99.90
10722;DHT22;5412;59.450;18.124;2023-04-06T03:50:49;2.30;99.90
10722;DHT22;5412;59.450;18.124;2023-04-06T03:53:14;2.40;99.90
10722;DHT22;5412;59.450;18.124;2023-04-06T03:55:40;2.40;99.90
10722;DHT22;5412;59.450;18.124;2023-04-06T03:58:06;2.50;99.90
10722;DHT22;5412;59.450;18.124;2023-04-06T04:00:32;2.40;99.90
10722;DHT22;5412;59.450;18.124;2023-04-06T04:02:58;2.40;99.90
10722;DHT22;5412;59.450;18.124;2023-04-06T04:05:24;2.50;99.90
10722;DHT22;5412;59.450;18.124;2023-04-06T04:07:51;2.50;99.90
10722;DHT22;5412;59.450;18.124;2023-04-06T04:10:17;2.50;99.90
10722;DHT22;5412;59.450;18.124;2023-04-06T04:12:43;2.50;99.90
10722;DHT22;5412;59.450;18.124;2023-04-06T04:15:09;2.30;99.90
10722;DHT22;5412;59.450;18.124;2023-04-06T04:17:35;2.40;99.90
10722;DHT22;5412;59.450;18.124;2023-04-06T04:20:01;2.30;99.90
10722;DHT22;5412;59.450;18.124;2023-04-06T04:22:26;2.30;99.90
10722;DHT22;5412;59.450;18.124;2023-04-06T04:24:55;2.30;99.90
10722;DHT22;5412;59.450;18.124;2023-04-06T04:27:20;2.50;99.90
10722;DHT22;5412;59.450;18.124;2023-04-06T04:29:47;2.60;99.90
10722;DHT22;5412;59.450;18.124;2023-04-06T04:32:13;2.60;99.90
10722;DHT22;5412;59.450;18.124;2023-04-06T04:34:38;2.70;99.90
10722;DHT22;5412;59.450;18.124;2023-04-06T04:37:07;2.60;99.90
10722;DHT22;5412;59.450;18.124;2023-04-06T04:39:33;2.70;99.90
10722;DHT22;5412;59.450;18.124;2023-04-06T04:41:58;2.70;99.90
10722;DHT22;5412;59.450;18.124;2023-04-06T04:44:24;2.70;99.90
10722;DHT22;5412;59.450;18.124;2023-04-06T04:46:50;2.90;99.90
10722;DHT22;5412;59.450;18.124;2023-04-06T04:49:16;2.90;99.90
10722;DHT22;5412;59.450;18.124;2023-04-06T04:51:42;3.00;99.90
10722;DHT22;5412;59.450;18.124;2023-04-06T04:54:07;3.00;99.90
10722;DHT22;5412;59.450;18.124;2023-04-06T04:56:33;3.10;99.90
10722;DHT22;5412;59.450;18.124;2023-04-06T04:58:59;3.00;99.90
10722;DHT22;5412;59.450;18.124;2023-04-06T05:01:25;3.10;99.90
10722;DHT22;5412;59.450;18.124;2023-04-06T05:03:50;3.10;99.90
10722;DHT22;5412;59.450;18.124;2023-04-06T05:06:16;3.10;99.90
10722;DHT22;5412;59.450;18.124;2023-04-06T05:08:43;3.00;99.90
10722;DHT22;5412;59.450;18.124;2023-04-06T05:11:09;3.20;99.90
10722;DHT22;5412;59.450;18.124;2023-04-06T05:13:35;3.20;99.90
10722;DHT22;5412;59.450;18.124;2023-04-06T05:16:01;3.20;99.90
10722;DHT22;5412;59.450;18.124;2023-04-06T05:18:27;3.20;99.90
10722;DHT22;5412;59.450;18.124;2023-04-06T05:20:53;3.20;99.90
10722;DHT22;5412;59.450;18.124;2023-04-06T05:23:18;3.30;99.90
10722;DHT22;5412;59.450;18.124;2023-04-06T05:25:44;3.30;99.90
10722;DHT22;5412;59.450;18.124;2023-04-06T05:28:10;3.20;99.90
10722;DHT22;5412;59.450;18.124;2023-04-06T05:30:39;3.20;99.90
10722;DHT22;5412;59.450;18.124;2023-04-06T05:33:05;3.20;99.90
10722;DHT22;5412;59.450;18.124;2023-04-06T05:35:31;3.20;99.90
10722;DHT22;5412;59.450;18.124;2023-04-06T05:37:57;3.20;99.90
10722;DHT22;5412;59.450;18.124;2023-04-06T05:40:23;3.30;99.90
10722;DHT22;5412;59.450;18.124;2023-04-06T05:42:48;3.40;99.90
10722;DHT22;5412;59.450;18.124;2023-04-06T05:45:15;3.60;99.90
10722;DHT22;5412;59.450;18.124;2023-04-06T05:47:44;3.60;99.90
10722;DHT22;5412;59.450;18.124;2023-04-06T05:50:14;3.80;99.90
10722;DHT22;5412;59.450;18.124;2023-04-06T05:52:40;3.80;99.90
10722;DHT22;5412;59.450;18.124;2023-04-06T05:55:08;3.80;99.90
10722;DHT22;5412;59.450;18.124;2023-04-06T05:57:35;3.90;99.90
10722;DHT22;5412;59.450;18.124;2023-04-06T06:00:00;3.90;99.90
10722;DHT22;5412;59.450;18.124;2023-04-06T06:02:26;3.70;99.90
10722;DHT22;5412;59.450;18.124;2023-04-06T06:04:52;3.60;99.90
10722;DHT22;5412;59.450;18.124;2023-04-06T06:07:18;3.80;99.90
10722;DHT22;5412;59.450;18.124;2023-04-06T06:09:43;3.80;99.90
10722;DHT22;5412;59.450;18.124;2023-04-06T06:12:09;3.80;99.90
10722;DHT22;5412;59.450;18.124;2023-04-06T06:14:35;4.00;99.90
10722;DHT22;5412;59.450;18.124;2023-04-06T06:17:01;4.00;99.90
10722;DHT22;5412;59.450;18.124;2023-04-06T06:19:27;4.20;99.90
10722;DHT22;5412;59.450;18.124;2023-04-06T06:21:52;4.20;99.90
10722;DHT22;5412;59.450;18.124;2023-04-06T06:24:18;4.20;99.90
10722;DHT22;5412;59.450;18.124;2023-04-06T06:26:44;4.30;99.90
10722;DHT22;5412;59.450;18.124;2023-04-06T06:29:10;4.30;99.90
10722;DHT22;5412;59.450;18.124;2023-04-06T06:31:35;4.40;99.90
10722;DHT22;5412;59.450;18.124;2023-04-06T06:34:01;4.30;99.90
10722;DHT22;5412;59.450;18.124;2023-04-06T06:36:28;4.40;99.90
10722;DHT22;5412;59.450;18.124;2023-04-06T06:38:54;4.40;99.90
10722;DHT22;5412;59.450;18.124;2023-04-06T06:41:20;4.50;99.90
10722;DHT22;5412;59.450;18.124;2023-04-06T06:43:46;4.60;99.90
10722;DHT22;5412;59.450;18.124;2023-04-06T06:46:12;4.60;99.90
10722;DHT22;5412;59.450;18.124;2023-04-06T06:48:37;4.70;99.90
10722;DHT22;5412;59.450;18.124;2023-04-06T06:51:03;4.90;99.90
10722;DHT22;5412;59.450;18.124;2023-04-06T06:53:29;4.90;99.90
10722;DHT22;5412;59.450;18.124;2023-04-06T06:55:55;5.10;99.90
10722;DHT22;5412;59.450;18.124;2023-04-06T06:58:21;5.00;99.90
10722;DHT22;5412;59.450;18.124;2023-04-06T07:00:47;5.00;99.90
10722;DHT22;5412;59.450;18.124;2023-04-06T07:03:13;5.00;99.90
10722;DHT22;5412;59.450;18.124;2023-04-06T07:05:44;4.90;99.90
10722;DHT22;5412;59.450;18.124;2023-04-06T07:08:10;5.00;99.90
10722;DHT22;5412;59.450;18.124;2023-04-06T07:10:36;5.00;99.90
10722;DHT22;5412;59.450;18.124;2023-04-06T07:13:02;5.10;99.90
10722;DHT22;5412;59.450;18.124;2023-04-06T07:15:28;5.00;99.90
10722;DHT22;5412;59.450;18.124;2023-04-06T07:17:54;5.10;99.90
10722;DHT22;5412;59.450;18.124;2023-04-06T07:20:20;5.10;99.90
10722;DHT22;5412;59.450;18.124;2023-04-06T07:22:45;5.20;99.90
10722;DHT22;5412;59.450;18.124;2023-04-06T07:25:11;5.30;99.90
10722;DHT22;5412;59.450;18.124;2023-04-06T07:27:37;5.40;99.90
10722;DHT22;5412;59.450;18.124;2023-04-06T07:30:03;5.70;99.90
10722;DHT22;5412;59.450;18.124;2023-04-06T07:32:29;5.90;99.90
10722;DHT22;5412;59.450;18.124;2023-04-06T07:34:56;5.80;99.90
10722;DHT22;5412;59.450;18.124;2023-04-06T07:37:22;5.80;99.90
10722;DHT22;5412;59.450;18.124;2023-04-06T07:39:47;6.10;99.90
10722;DHT22;5412;59.450;18.124;2023-04-06T07:42:13;6.40;99.90
10722;DHT22;5412;59.450;18.124;2023-04-06T07:44:39;6.40;99.90
10722;DHT22;5412;59.450;18.124;2023-04-06T07:47:05;6.40;99.90
10722;DHT22;5412;59.450;18.124;2023-04-06T07:49:30;6.40;99.90
10722;DHT22;5412;59.450;18.124;2023-04-06T07:51:58;6.50;99.90
10722;DHT22;5412;59.450;18.124;2023-04-06T07:54:24;6.30;99.90
10722;DHT22;5412;59.450;18.124;2023-04-06T07:56:49;6.30;99.90
10722;DHT22;5412;59.450;18.124;2023-04-06T07:59:15;6.40;99.90
10722;DHT22;5412;59.450;18.124;2023-04-06T08:01:41;6.10;99.90
10722;DHT22;5412;59.450;18.124;2023-04-06T08:04:07;6.30;99.90
10722;DHT22;5412;59.450;18.124;2023-04-06T08:06:33;6.40;99.90
10722;DHT22;5412;59.450;18.124;2023-04-06T08:08:59;6.50;99.90
10722;DHT22;5412;59.450;18.124;2023-04-06T08:11:25;6.10;99.90
10722;DHT22;5412;59.450;18.124;2023-04-06T08:13:52;6.00;99.90
10722;DHT22;5412;59.450;18.124;2023-04-06T08:16:18;5.80;99.90
10722;DHT22;5412;59.450;18.124;2023-04-06T08:18:44;5.60;99.90
10722;DHT22;5412;59.450;18.124;2023-04-06T08:21:10;5.70;99.90
10722;DHT22;5412;59.450;18.124;2023-04-06T08:23:36;6.00;99.90
10722;DHT22;5412;59.450;18.124;2023-04-06T08:26:02;6.10;99.90
10722;DHT22;5412;59.450;18.124;2023-04-06T08:28:27;6.20;99.90
10722;DHT22;5412;59.450;18.124;2023-04-06T08:30:53;6.20;99.90
10722;DHT22;5412;59.450;18.124;2023-04-06T08:33:19;6.10;99.90
10722;DHT22;5412;59.450;18.124;2023-04-06T08:35:45;6.10;99.90
10722;DHT22;5412;59.450;18.124;2023-04-06T08:38:11;6.20;99.90
10722;DHT22;5412;59.450;18.124;2023-04-06T08:40:40;6.40;99.90
10722;DHT22;5412;59.450;18.124;2023-04-06T08:43:13;6.50;99.90
10722;DHT22;5412;59.450;18.124;2023-04-06T08:45:40;6.60;99.90
10722;DHT22;5412;59.450;18.124;2023-04-06T08:48:07;6.70;99.90
10722;DHT22;5412;59.450;18.124;2023-04-06T08:50:33;6.60;99.90
10722;DHT22;5412;59.450;18.124;2023-04-06T08:53:01;6.60;99.90
10722;DHT22;5412;59.450;18.124;2023-04-06T08:55:27;6.50;99.90
10722;DHT22;5412;59.450;18.124;2023-04-06T08:57:53;6.40;99.90
10722;DHT22;5412;59.450;18.124;2023-04-06T09:00:20;6.60;99.90
10722;DHT22;5412;59.450;18.124;2023-04-06T09:02:47;7.20;99.90
10722;DHT22;5412;59.450;18.124;2023-04-06T09:05:15;7.10;99.90
10722;DHT22;5412;59.450;18.124;2023-04-06T09:07:41;7.10;99.90
10722;DHT22;5412;59.450;18.124;2023-04-06T09:10:08;7.30;99.90
10722;DHT22;5412;59.450;18.124;2023-04-06T09:12:34;7.60;99.90
10722;DHT22;5412;59.450;18.124;2023-04-06T09:15:01;7.60;99.90
10722;DHT22;5412;59.450;18.124;2023-04-06T09:17:33;7.30;99.90
10722;DHT22;5412;59.450;18.124;2023-04-06T09:20:00;7.20;99.90
10722;DHT22;5412;59.450;18.124;2023-04-06T09:22:38;7.20;99.90
10722;DHT22;5412;59.450;18.124;2023-04-06T09:25:04;7.10;99.90
10722;DHT22;5412;59.450;18.124;2023-04-06T09:27:32;7.10;99.90
10722;DHT22;5412;59.450;18.124;2023-04-06T09:32:30;7.20;99.90
10722;DHT22;5412;59.450;18.124;2023-04-06T09:35:07;7.10;99.90
10722;DHT22;5412;59.450;18.124;2023-04-06T09:37:33;7.10;99.90
10722;DHT22;5412;59.450;18.124;2023-04-06T09:40:05;7.10;99.90
10722;DHT22;5412;59.450;18.124;2023-04-06T09:42:32;6.90;99.90
10722;DHT22;5412;59.450;18.124;2023-04-06T09:44:58;7.10;99.90
10722;DHT22;5412;59.450;18.124;2023-04-06T09:47:24;7.00;99.90
10722;DHT22;5412;59.450;18.124;2023-04-06T09:49:56;6.90;99.90
10722;DHT22;5412;59.450;18.124;2023-04-06T09:52:26;7.00;99.90
10722;DHT22;5412;59.450;18.124;2023-04-06T09:54:55;7.10;99.90
10722;DHT22;5412;59.450;18.124;2023-04-06T10:00:14;7.00;99.90
10722;DHT22;5412;59.450;18.124;2023-04-06T10:03:13;7.00;99.90
10722;DHT22;5412;59.450;18.124;2023-04-06T10:05:48;7.10;99.90
10722;DHT22;5412;59.450;18.124;2023-04-06T10:08:16;7.30;99.90
10722;DHT22;5412;59.450;18.124;2023-04-06T10:10:43;7.30;99.90
10722;DHT22;5412;59.450;18.124;2023-04-06T10:13:11;7.20;99.90
10722;DHT22;5412;59.450;18.124;2023-04-06T10:15:38;7.30;99.90
10722;DHT22;5412;59.450;18.124;2023-04-06T10:18:05;7.40;99.90
10722;DHT22;5412;59.450;18.124;2023-04-06T10:20:47;7.40;99.90
10722;DHT22;5412;59.450;18.124;2023-04-06T10:23:21;7.50;99.90
10722;DHT22;5412;59.450;18.124;2023-04-06T10:25:57;7.40;99.90
10722;DHT22;5412;59.450;18.124;2023-04-06T10:28:24;7.60;99.90
10722;DHT22;5412;59.450;18.124;2023-04-06T10:30:57;7.50;99.90
10722;DHT22;5412;59.450;18.124;2023-04-06T10:33:24;7.60;99.90
10722;DHT22;5412;59.450;18.124;2023-04-06T10:35:50;7.60;99.90
10722;DHT22;5412;59.450;18.124;2023-04-06T10:38:16;7.60;99.90
10722;DHT22;5412;59.450;18.124;2023-04-06T10:40:46;7.50;99.90
10722;DHT22;5412;59.450;18.124;2023-04-06T10:43:20;7.50;99.90
10722;DHT22;5412;59.450;18.124;2023-04-06T10:45:55;7.70;99.90
10722;DHT22;5412;59.450;18.124;2023-04-06T10:48:21;7.80;99.90
10722;DHT22;5412;59.450;18.124;2023-04-06T10:50:52;7.80;99.90
10722;DHT22;5412;59.450;18.124;2023-04-06T10:53:25;7.80;99.90
10722;DHT22;5412;59.450;18.124;2023-04-06T10:55:52;7.90;99.90
10722;DHT22;5412;59.450;18.124;2023-04-06T10:58:19;7.90;99.90
10722;DHT22;5412;59.450;18.124;2023-04-06T11:00:49;8.00;99.90
10722;DHT22;5412;59.450;18.124;2023-04-06T11:03:15;8.00;99.90
10722;DHT22;5412;59.450;18.124;2023-04-06T11:05:45;8.30;99.90
10722;DHT22;5412;59.450;18.124;2023-04-06T11:08:32;8.40;99.90
10722;DHT22;5412;59.450;18.124;2023-04-06T11:11:09;8.30;99.90
10722;DHT22;5412;59.450;18.124;2023-04-06T11:13:44;8.20;99.90
10722;DHT22;5412;59.450;18.124;2023-04-06T11:18:54;8.30;99.90
10722;DHT22;5412;59.450;18.124;2023-04-06T11:21:32;8.40;99.90
10722;DHT22;5412;59.450;18.124;2023-04-06T11:24:15;8.60;99.90
10722;DHT22;5412;59.450;18.124;2023-04-06T11:26:45;8.50;99.90
10722;DHT22;5412;59.450;18.124;2023-04-06T11:29:13;8.40;99.90
10722;DHT22;5412;59.450;18.124;2023-04-06T11:31:45;8.50;99.90
10722;DHT22;5412;59.450;18.124;2023-04-06T11:34:21;8.60;99.90
10722;DHT22;5412;59.450;18.124;2023-04-06T11:36:55;8.70;99.90
10722;DHT22;5412;59.450;18.124;2023-04-06T11:39:24;8.70;99.90
10722;DHT22;5412;59.450;18.124;2023-04-06T11:41:55;8.40;99.90
10722;DHT22;5412;59.450;18.124;2023-04-06T11:46:59;8.60;99.90
10722;DHT22;5412;59.450;18.124;2023-04-06T11:49:29;8.60;99.90
10722;DHT22;5412;59.450;18.124;2023-04-06T11:51:56;8.70;99.90
10722;DHT22;5412;59.450;18.124;2023-04-06T11:54:40;8.60;99.90
10722;DHT22;5412;59.450;18.124;2023-04-06T11:57:08;8.70;99.90
10722;DHT22;5412;59.450;18.124;2023-04-06T11:59:34;8.80;99.90
10722;DHT22;5412;59.450;18.124;2023-04-06T12:02:04;8.60;99.90
10722;DHT22;5412;59.450;18.124;2023-04-06T12:04:31;8.50;99.90
10722;DHT22;5412;59.450;18.124;2023-04-06T12:06:57;8.60;99.90
10722;DHT22;5412;59.450;18.124;2023-04-06T12:09:23;8.70;99.90
10722;DHT22;5412;59.450;18.124;2023-04-06T12:11:49;8.70;99.90
10722;DHT22;5412;59.450;18.124;2023-04-06T12:14:15;8.90;99.90
10722;DHT22;5412;59.450;18.124;2023-04-06T12:16:41;8.80;99.90
10722;DHT22;5412;59.450;18.124;2023-04-06T12:19:07;8.80;99.90
10722;DHT22;5412;59.450;18.124;2023-04-06T12:21:34;8.80;99.90
10722;DHT22;5412;59.450;18.124;2023-04-06T12:24:04;8.90;99.90
10722;DHT22;5412;59.450;18.124;2023-04-06T12:26:30;9.00;99.90
10722;DHT22;5412;59.450;18.124;2023-04-06T12:28:57;8.90;99.90
10722;DHT22;5412;59.450;18.124;2023-04-06T12:31:28;9.00;99.90
10722;DHT22;5412;59.450;18.124;2023-04-06T12:33:54;9.00;99.90
10722;DHT22;5412;59.450;18.124;2023-04-06T12:36:20;8.90;99.90
10722;DHT22;5412;59.450;18.124;2023-04-06T12:38:49;9.00;99.90
10722;DHT22;5412;59.450;18.124;2023-04-06T12:41:16;9.00;99.90
10722;DHT22;5412;59.450;18.124;2023-04-06T12:43:43;9.10;99.90
10722;DHT22;5412;59.450;18.124;2023-04-06T12:46:09;9.20;99.90
10722;DHT22;5412;59.450;18.124;2023-04-06T12:48:35;9.20;99.90
10722;DHT22;5412;59.450;18.124;2023-04-06T12:51:03;9.30;99.90
10722;DHT22;5412;59.450;18.124;2023-04-06T12:53:29;9.40;99.90
10722;DHT22;5412;59.450;18.124;2023-04-06T12:55:56;9.50;99.90
10722;DHT22;5412;59.450;18.124;2023-04-06T12:58:23;9.90;99.90
10722;DHT22;5412;59.450;18.124;2023-04-06T13:00:50;10.20;99.90
10722;DHT22;5412;59.450;18.124;2023-04-06T13:03:17;10.20;99.90
10722;DHT22;5412;59.450;18.124;2023-04-06T13:06:01;10.30;99.90
10722;DHT22;5412;59.450;18.124;2023-04-06T13:08:27;10.50;99.90
10722;DHT22;5412;59.450;18.124;2023-04-06T13:10:53;10.70;99.90
10722;DHT22;5412;59.450;18.124;2023-04-06T13:13:24;10.90;99.90
10722;DHT22;5412;59.450;18.124;2023-04-06T13:15:50;11.00;99.90
10722;DHT22;5412;59.450;18.124;2023-04-06T13:18:16;11.00;99.90
10722;DHT22;5412;59.450;18.124;2023-04-06T13:20:42;11.10;99.90
10722;DHT22;5412;59.450;18.124;2023-04-06T13:23:08;11.20;99.90
10722;DHT22;5412;59.450;18.124;2023-04-06T13:25:34;11.50;99.90
10722;DHT22;5412;59.450;18.124;2023-04-06T13:28:00;11.80;99.90
10722;DHT22;5412;59.450;18.124;2023-04-06T13:30:26;11.50;99.90
10722;DHT22;5412;59.450;18.124;2023-04-06T13:32:52;11.60;99.90
10722;DHT22;5412;59.450;18.124;2023-04-06T13:35:18;11.60;99.90
10722;DHT22;5412;59.450;18.124;2023-04-06T13:37:44;11.60;99.90
10722;DHT22;5412;59.450;18.124;2023-04-06T13:40:10;11.10;99.90
10722;DHT22;5412;59.450;18.124;2023-04-06T13:42:36;11.20;99.90
10722;DHT22;5412;59.450;18.124;2023-04-06T13:45:06;11.30;99.90
10722;DHT22;5412;59.450;18.124;2023-04-06T13:47:32;11.20;99.90
10722;DHT22;5412;59.450;18.124;2023-04-06T13:49:57;11.00;99.90
10722;DHT22;5412;59.450;18.124;2023-04-06T13:52:23;10.80;99.90
10722;DHT22;5412;59.450;18.124;2023-04-06T13:54:49;10.60;99.90
10722;DHT22;5412;59.450;18.124;2023-04-06T13:57:15;10.40;99.90
10722;DHT22;5412;59.450;18.124;2023-04-06T13:59:42;10.30;99.90
10722;DHT22;5412;59.450;18.124;2023-04-06T14:02:09;10.70;99.90
10722;DHT22;5412;59.450;18.124;2023-04-06T14:04:35;11.10;99.90
10722;DHT22;5412;59.450;18.124;2023-04-06T14:07:02;11.30;99.90
10722;DHT22;5412;59.450;18.124;2023-04-06T14:09:29;11.20;99.90
10722;DHT22;5412;59.450;18.124;2023-04-06T14:11:56;11.20;99.90
10722;DHT22;5412;59.450;18.124;2023-04-06T14:14:22;11.00;99.90
10722;DHT22;5412;59.450;18.124;2023-04-06T14:16:48;10.60;99.90
10722;DHT22;5412;59.450;18.124;2023-04-06T14:19:16;10.40;99.90
10722;DHT22;5412;59.450;18.124;2023-04-06T14:21:43;10.50;99.90
10722;DHT22;5412;59.450;18.124;2023-04-06T14:24:10;10.60;99.90
10722;DHT22;5412;59.450;18.124;2023-04-06T14:26:36;10.30;99.90
10722;DHT22;5412;59.450;18.124;2023-04-06T14:29:05;10.10;99.90
10722;DHT22;5412;59.450;18.124;2023-04-06T14:31:32;9.70;99.90
10722;DHT22;5412;59.450;18.124;2023-04-06T14:33:58;9.40;99.90
10722;DHT22;5412;59.450;18.124;2023-04-06T14:36:24;8.70;99.90
10722;DHT22;5412;59.450;18.124;2023-04-06T14:38:52;8.20;99.90
10722;DHT22;5412;59.450;18.124;2023-04-06T14:41:19;7.70;99.90
10722;DHT22;5412;59.450;18.124;2023-04-06T14:43:47;7.50;99.90
10722;DHT22;5412;59.450;18.124;2023-04-06T14:46:13;7.00;99.90
10722;DHT22;5412;59.450;18.124;2023-04-06T14:48:39;6.70;99.90
10722;DHT22;5412;59.450;18.124;2023-04-06T14:51:05;6.40;99.90
10722;DHT22;5412;59.450;18.124;2023-04-06T14:53:32;6.40;99.90
10722;DHT22;5412;59.450;18.124;2023-04-06T14:55:57;6.30;99.90
10722;DHT22;5412;59.450;18.124;2023-04-06T14:58:24;6.40;99.90
10722;DHT22;5412;59.450;18.124;2023-04-06T15:00:58;6.50;99.90
10722;DHT22;5412;59.450;18.124;2023-04-06T15:03:28;6.60;99.90
10722;DHT22;5412;59.450;18.124;2023-04-06T15:05:55;6.70;99.90
10722;DHT22;5412;59.450;18.124;2023-04-06T15:08:22;6.90;99.90
10722;DHT22;5412;59.450;18.124;2023-04-06T15:10:49;7.00;99.90
10722;DHT22;5412;59.450;18.124;2023-04-06T15:13:15;7.00;99.90
10722;DHT22;5412;59.450;18.124;2023-04-06T15:15:41;6.90;99.90
10722;DHT22;5412;59.450;18.124;2023-04-06T15:18:08;6.80;99.90
10722;DHT22;5412;59.450;18.124;2023-04-06T15:20:33;6.90;99.90
10722;DHT22;5412;59.450;18.124;2023-04-06T15:23:01;7.00;99.90
10722;DHT22;5412;59.450;18.124;2023-04-06T15:25:26;6.90;99.90
10722;DHT22;5412;59.450;18.124;2023-04-06T15:27:54;6.80;99.90
10722;DHT22;5412;59.450;18.124;2023-04-06T15:30:19;6.90;99.90
10722;DHT22;5412;59.450;18.124;2023-04-06T15:32:53;6.90;99.90
10722;DHT22;5412;59.450;18.124;2023-04-06T15:35:20;6.80;99.90
10722;DHT22;5412;59.450;18.124;2023-04-06T15:37:46;7.00;99.90
10722;DHT22;5412;59.450;18.124;2023-04-06T15:40:12;7.00;99.90
10722;DHT22;5412;59.450;18.124;2023-04-06T15:42:39;6.90;99.90
10722;DHT22;5412;59.450;18.124;2023-04-06T15:45:07;6.80;99.90
10722;DHT22;5412;59.450;18.124;2023-04-06T15:47:33;6.90;99.90
10722;DHT22;5412;59.450;18.124;2023-04-06T15:49:59;6.80;99.90
10722;DHT22;5412;59.450;18.124;2023-04-06T15:52:25;6.70;99.90
10722;DHT22;5412;59.450;18.124;2023-04-06T15:54:50;6.70;99.90